sensor_id;sensor_type;location;lat;lon;timestamp;temperature;humidity
52643;DHT22;38531;53.296;6.614;2022-12-07T00:01:13;4.00;99.90
52643;DHT22;38531;53.296;6.614;2022-12-07T00:03:41;4.00;99.90
52643;DHT22;38531;53.296;6.614;2022-12-07T00:06:09;3.90;99.90
52643;DHT22;38531;53.296;6.614;2022-12-07T00:08:35;3.80;99.90
52643;DHT22;38531;53.296;6.614;2022-12-07T00:11:08;3.40;99.90
52643;DHT22;38531;53.296;6.614;2022-12-07T00:13:35;4.70;99.90
52643;DHT22;38531;53.296;6.614;2022-12-07T00:16:10;3.60;99.90
52643;DHT22;38531;53.296;6.614;2022-12-07T00:18:36;4.60;99.90
52643;DHT22;38531;53.296;6.614;2022-12-07T00:21:05;3.40;99.90
52643;DHT22;38531;53.296;6.614;2022-12-07T00:23:30;3.40;99.90
52643;DHT22;38531;53.296;6.614;2022-12-07T00:26:06;2.90;99.90
52643;DHT22;38531;53.296;6.614;2022-12-07T00:28:32;3.40;99.90
52643;DHT22;38531;53.296;6.614;2022-12-07T00:31:19;3.30;99.90
52643;DHT22;38531;53.296;6.614;2022-12-07T00:33:47;4.40;99.90
52643;DHT22;38531;53.296;6.614;2022-12-07T00:36:19;3.30;99.90
52643;DHT22;38531;53.296;6.614;2022-12-07T00:38:45;3.30;99.90
52643;DHT22;38531;53.296;6.614;2022-12-07T00:41:16;4.40;99.90
52643;DHT22;38531;53.296;6.614;2022-12-07T00:43:43;3.30;99.90
52643;DHT22;38531;53.296;6.614;2022-12-07T00:46:10;4.10;99.90
52643;DHT22;38531;53.296;6.614;2022-12-07T00:48:36;3.60;99.90
52643;DHT22;38531;53.296;6.614;2022-12-07T00:51:03;3.50;99.90
52643;DHT22;38531;53.296;6.614;2022-12-07T00:53:29;3.50;99.90
52643;DHT22;38531;53.296;6.614;2022-12-07T00:55:55;3.60;99.90
52643;DHT22;38531;53.296;6.614;2022-12-07T00:58:22;4.10;99.90
52643;DHT22;38531;53.296;6.614;2022-12-07T01:00:48;4.20;99.90
52643;DHT22;38531;53.296;6.614;2022-12-07T01:03:15;4.70;99.90
52643;DHT22;38531;53.296;6.614;2022-12-07T01:05:52;2.80;99.90
52643;DHT22;38531;53.296;6.614;2022-12-07T01:08:19;4.10;99.90
52643;DHT22;38531;53.296;6.614;2022-12-07T01:10:45;4.10;99.90
52643;DHT22;38531;53.296;6.614;2022-12-07T01:13:11;4.70;99.90
52643;DHT22;38531;53.296;6.614;2022-12-07T01:15:46;5.30;99.90
52643;DHT22;38531;53.296;6.614;2022-12-07T01:18:12;4.30;99.90
52643;DHT22;38531;53.296;6.614;2022-12-07T01:20:37;4.20;99.90
52643;DHT22;38531;53.296;6.614;2022-12-07T01:23:03;4.20;99.90
52643;DHT22;38531;53.296;6.614;2022-12-07T01:25:29;4.50;99.90
52643;DHT22;38531;53.296;6.614;2022-12-07T01:27:55;3.70;99.90
52643;DHT22;38531;53.296;6.614;2022-12-07T01:30:20;4.10;99.90
52643;DHT22;38531;53.296;6.614;2022-12-07T01:32:49;5.00;99.90
52643;DHT22;38531;53.296;6.614;2022-12-07T01:35:14;4.00;99.90
52643;DHT22;38531;53.296;6.614;2022-12-07T01:37:40;4.10;99.90
52643;DHT22;38531;53.296;6.614;2022-12-07T01:40:07;4.60;99.90
52643;DHT22;38531;53.296;6.614;2022-12-07T01:42:34;4.20;99.90
52643;DHT22;38531;53.296;6.614;2022-12-07T01:47:47;5.00;99.90
52643;DHT22;38531;53.296;6.614;2022-12-07T01:50:14;6.00;99.90
52643;DHT22;38531;53.296;6.614;2022-12-07T01:52:42;4.30;99.90
52643;DHT22;38531;53.296;6.614;2022-12-07T01:55:12;4.30;99.90
52643;DHT22;38531;53.296;6.614;2022-12-07T01:57:43;3.30;99.90
52643;DHT22;38531;53.296;6.614;2022-12-07T02:00:13;4.70;99.90
52643;DHT22;38531;53.296;6.614;2022-12-07T02:02:48;4.20;99.90
52643;DHT22;38531;53.296;6.614;2022-12-07T02:05:16;4.20;99.90
52643;DHT22;38531;53.296;6.614;2022-12-07T02:07:42;5.00;99.90
52643;DHT22;38531;53.296;6.614;2022-12-07T02:10:26;4.70;99.90
52643;DHT22;38531;53.296;6.614;2022-12-07T02:13:13;4.00;99.90
52643;DHT22;38531;53.296;6.614;2022-12-07T02:18:48;3.80;99.90
52643;DHT22;38531;53.296;6.614;2022-12-07T02:24:14;3.70;99.90
52643;DHT22;38531;53.296;6.614;2022-12-07T02:26:53;3.60;99.90
52643;DHT22;38531;53.296;6.614;2022-12-07T02:29:23;4.50;99.90
52643;DHT22;38531;53.296;6.614;2022-12-07T02:32:12;3.50;99.90
52643;DHT22;38531;53.296;6.614;2022-12-07T02:43:09;3.30;99.90
52643;DHT22;38531;53.296;6.614;2022-12-07T02:45:39;3.30;99.90
52643;DHT22;38531;53.296;6.614;2022-12-07T02:48:07;3.70;99.90
52643;DHT22;38531;53.296;6.614;2022-12-07T02:50:34;2.60;99.90
52643;DHT22;38531;53.296;6.614;2022-12-07T02:53:00;1.90;99.90
52643;DHT22;38531;53.296;6.614;2022-12-07T02:55:34;3.20;99.90
52643;DHT22;38531;53.296;6.614;2022-12-07T03:01:20;3.20;99.90
52643;DHT22;38531;53.296;6.614;2022-12-07T03:04:02;2.30;99.90
52643;DHT22;38531;53.296;6.614;2022-12-07T03:06:33;3.00;99.90
52643;DHT22;38531;53.296;6.614;2022-12-07T03:09:14;2.90;99.90
52643;DHT22;38531;53.296;6.614;2022-12-07T03:11:55;3.30;99.90
52643;DHT22;38531;53.296;6.614;2022-12-07T03:14:31;3.20;99.90
52643;DHT22;38531;53.296;6.614;2022-12-07T03:17:21;4.20;99.90
52643;DHT22;38531;53.296;6.614;2022-12-07T03:19:51;3.90;99.90
52643;DHT22;38531;53.296;6.614;2022-12-07T03:22:21;3.70;99.90
52643;DHT22;38531;53.296;6.614;2022-12-07T03:24:52;3.40;99.90
52643;DHT22;38531;53.296;6.614;2022-12-07T03:27:22;3.70;99.90
52643;DHT22;38531;53.296;6.614;2022-12-07T03:32:29;4.00;99.90
52643;DHT22;38531;53.296;6.614;2022-12-07T03:35:10;3.70;99.90
52643;DHT22;38531;53.296;6.614;2022-12-07T03:37:52;4.40;99.90
52643;DHT22;38531;53.296;6.614;2022-12-07T03:40:35;3.90;99.90
52643;DHT22;38531;53.296;6.614;2022-12-07T03:43:03;5.00;99.90
52643;DHT22;38531;53.296;6.614;2022-12-07T03:45:41;4.00;99.90
52643;DHT22;38531;53.296;6.614;2022-12-07T03:51:16;4.00;99.90
52643;DHT22;38531;53.296;6.614;2022-12-07T03:54:02;4.00;99.90
52643;DHT22;38531;53.296;6.614;2022-12-07T03:56:31;4.90;99.90
52643;DHT22;38531;53.296;6.614;2022-12-07T03:58:58;2.80;99.90
52643;DHT22;38531;53.296;6.614;2022-12-07T04:01:24;4.20;99.90
52643;DHT22;38531;53.296;6.614;2022-12-07T04:03:49;3.70;99.90
52643;DHT22;38531;53.296;6.614;2022-12-07T04:06:16;4.60;99.90
52643;DHT22;38531;53.296;6.614;2022-12-07T04:08:41;4.10;99.90
52643;DHT22;38531;53.296;6.614;2022-12-07T04:11:07;3.90;99.90
52643;DHT22;38531;53.296;6.614;2022-12-07T04:13:33;3.90;99.90
52643;DHT22;38531;53.296;6.614;2022-12-07T04:16:18;4.80;99.90
52643;DHT22;38531;53.296;6.614;2022-12-07T04:18:44;4.20;99.90
52643;DHT22;38531;53.296;6.614;2022-12-07T04:21:10;5.00;99.90
52643;DHT22;38531;53.296;6.614;2022-12-07T04:23:35;3.70;99.90
52643;DHT22;38531;53.296;6.614;2022-12-07T04:26:01;4.60;99.90
52643;DHT22;38531;53.296;6.614;2022-12-07T04:28:29;4.10;99.90
52643;DHT22;38531;53.296;6.614;2022-12-07T04:30:55;4.50;99.90
52643;DHT22;38531;53.296;6.614;2022-12-07T04:33:21;3.90;99.90
52643;DHT22;38531;53.296;6.614;2022-12-07T04:35:46;4.30;99.90
52643;DHT22;38531;53.296;6.614;2022-12-07T04:38:12;4.90;99.90
52643;DHT22;38531;53.296;6.614;2022-12-07T04:40:38;3.00;99.90
52643;DHT22;38531;53.296;6.614;2022-12-07T04:43:04;3.90;99.90
52643;DHT22;38531;53.296;6.614;2022-12-07T04:45:30;2.90;99.90
52643;DHT22;38531;53.296;6.614;2022-12-07T04:47:56;4.40;99.90
52643;DHT22;38531;53.296;6.614;2022-12-07T04:50:21;4.30;99.90
52643;DHT22;38531;53.296;6.614;2022-12-07T04:52:47;2.80;99.90
52643;DHT22;38531;53.296;6.614;2022-12-07T04:55:13;3.80;99.90
52643;DHT22;38531;53.296;6.614;2022-12-07T04:57:38;4.20;99.90
52643;DHT22;38531;53.296;6.614;2022-12-07T05:00:05;2.50;99.90
52643;DHT22;38531;53.296;6.614;2022-12-07T05:02:31;3.60;99.90
52643;DHT22;38531;53.296;6.614;2022-12-07T05:04:56;2.70;99.90
52643;DHT22;38531;53.296;6.614;2022-12-07T05:07:22;2.40;99.90
52643;DHT22;38531;53.296;6.614;2022-12-07T05:09:47;3.30;99.90
52643;DHT22;38531;53.296;6.614;2022-12-07T05:12:13;3.50;99.90
52643;DHT22;38531;53.296;6.614;2022-12-07T05:14:39;4.40;99.90
52643;DHT22;38531;53.296;6.614;2022-12-07T05:17:07;4.00;99.90
52643;DHT22;38531;53.296;6.614;2022-12-07T05:19:32;3.30;99.90
52643;DHT22;38531;53.296;6.614;2022-12-07T05:21:58;3.20;99.90
52643;DHT22;38531;53.296;6.614;2022-12-07T05:24:24;3.20;99.90
52643;DHT22;38531;53.296;6.614;2022-12-07T05:26:49;3.40;99.90
52643;DHT22;38531;53.296;6.614;2022-12-07T05:29:16;2.10;99.90
52643;DHT22;38531;53.296;6.614;2022-12-07T05:31:43;2.80;99.90
52643;DHT22;38531;53.296;6.614;2022-12-07T05:34:11;2.90;99.90
52643;DHT22;38531;53.296;6.614;2022-12-07T05:36:36;2.80;99.90
52643;DHT22;38531;53.296;6.614;2022-12-07T05:39:02;3.90;99.90
52643;DHT22;38531;53.296;6.614;2022-12-07T05:41:28;2.70;99.90
52643;DHT22;38531;53.296;6.614;2022-12-07T05:44:12;2.60;99.90
52643;DHT22;38531;53.296;6.614;2022-12-07T05:46:38;2.40;99.90
52643;DHT22;38531;53.296;6.614;2022-12-07T05:49:04;3.20;99.90
52643;DHT22;38531;53.296;6.614;2022-12-07T05:51:30;3.60;99.90
52643;DHT22;38531;53.296;6.614;2022-12-07T05:53:55;2.40;99.90
52643;DHT22;38531;53.296;6.614;2022-12-07T05:56:22;1.70;99.90
52643;DHT22;38531;53.296;6.614;2022-12-07T05:58:48;2.30;99.90
52643;DHT22;38531;53.296;6.614;2022-12-07T06:01:33;2.90;99.90
52643;DHT22;38531;53.296;6.614;2022-12-07T06:03:58;3.50;99.90
52643;DHT22;38531;53.296;6.614;2022-12-07T06:06:24;2.20;99.90
52643;DHT22;38531;53.296;6.614;2022-12-07T06:08:50;2.20;99.90
52643;DHT22;38531;53.296;6.614;2022-12-07T06:11:15;2.60;99.90
52643;DHT22;38531;53.296;6.614;2022-12-07T06:14:00;2.30;99.90
52643;DHT22;38531;53.296;6.614;2022-12-07T06:16:25;2.60;99.90
52643;DHT22;38531;53.296;6.614;2022-12-07T06:18:51;3.40;99.90
52643;DHT22;38531;53.296;6.614;2022-12-07T06:21:17;2.80;99.90
52643;DHT22;38531;53.296;6.614;2022-12-07T06:23:42;2.90;99.90
52643;DHT22;38531;53.296;6.614;2022-12-07T06:26:08;3.70;99.90
52643;DHT22;38531;53.296;6.614;2022-12-07T06:28:34;3.50;99.90
52643;DHT22;38531;53.296;6.614;2022-12-07T06:31:01;3.30;99.90
52643;DHT22;38531;53.296;6.614;2022-12-07T06:33:28;3.20;99.90
52643;DHT22;38531;53.296;6.614;2022-12-07T06:35:54;4.70;99.90
52643;DHT22;38531;53.296;6.614;2022-12-07T06:38:19;3.40;99.90
52643;DHT22;38531;53.296;6.614;2022-12-07T06:40:45;3.60;99.90
52643;DHT22;38531;53.296;6.614;2022-12-07T06:43:11;3.80;99.90
52643;DHT22;38531;53.296;6.614;2022-12-07T06:45:37;3.40;99.90
52643;DHT22;38531;53.296;6.614;2022-12-07T06:48:02;3.30;99.90
52643;DHT22;38531;53.296;6.614;2022-12-07T06:50:28;2.70;99.90
52643;DHT22;38531;53.296;6.614;2022-12-07T06:52:54;4.30;99.90
52643;DHT22;38531;53.296;6.614;2022-12-07T06:55:19;3.30;99.90
52643;DHT22;38531;53.296;6.614;2022-12-07T06:57:45;3.70;99.90
52643;DHT22;38531;53.296;6.614;2022-12-07T07:00:11;2.90;99.90
52643;DHT22;38531;53.296;6.614;2022-12-07T07:02:37;3.20;99.90
52643;DHT22;38531;53.296;6.614;2022-12-07T07:05:03;3.30;99.90
52643;DHT22;38531;53.296;6.614;2022-12-07T07:07:29;3.60;99.90
52643;DHT22;38531;53.296;6.614;2022-12-07T07:09:55;3.70;99.90
52643;DHT22;38531;53.296;6.614;2022-12-07T07:12:20;3.20;99.90
52643;DHT22;38531;53.296;6.614;2022-12-07T07:14:46;3.50;99.90
52643;DHT22;38531;53.296;6.614;2022-12-07T07:17:12;3.30;99.90
52643;DHT22;38531;53.296;6.614;2022-12-07T07:19:38;3.70;99.90
52643;DHT22;38531;53.296;6.614;2022-12-07T07:22:04;4.50;99.90
52643;DHT22;38531;53.296;6.614;2022-12-07T07:24:30;4.60;99.90
52643;DHT22;38531;53.296;6.614;2022-12-07T07:26:56;3.40;99.90
52643;DHT22;38531;53.296;6.614;2022-12-07T07:29:21;4.20;99.90
52643;DHT22;38531;53.296;6.614;2022-12-07T07:31:47;4.20;99.90
52643;DHT22;38531;53.296;6.614;2022-12-07T07:34:16;3.20;99.90
52643;DHT22;38531;53.296;6.614;2022-12-07T07:36:41;3.40;99.90
52643;DHT22;38531;53.296;6.614;2022-12-07T07:39:14;4.30;99.90
52643;DHT22;38531;53.296;6.614;2022-12-07T07:41:39;3.60;99.90
52643;DHT22;38531;53.296;6.614;2022-12-07T07:44:21;4.00;99.90
52643;DHT22;38531;53.296;6.614;2022-12-07T07:46:50;4.50;99.90
52643;DHT22;38531;53.296;6.614;2022-12-07T07:49:23;3.60;99.90
52643;DHT22;38531;53.296;6.614;2022-12-07T07:51:52;3.60;99.90
52643;DHT22;38531;53.296;6.614;2022-12-07T07:54:19;3.70;99.90
52643;DHT22;38531;53.296;6.614;2022-12-07T07:56:49;4.40;99.90
52643;DHT22;38531;53.296;6.614;2022-12-07T07:59:18;3.60;99.90
52643;DHT22;38531;53.296;6.614;2022-12-07T08:01:44;3.50;99.90
52643;DHT22;38531;53.296;6.614;2022-12-07T08:04:10;2.00;99.90
52643;DHT22;38531;53.296;6.614;2022-12-07T08:06:44;4.30;99.90
52643;DHT22;38531;53.296;6.614;2022-12-07T08:09:10;3.20;99.90
52643;DHT22;38531;53.296;6.614;2022-12-07T08:11:38;3.80;99.90
52643;DHT22;38531;53.296;6.614;2022-12-07T08:14:04;3.20;99.90
52643;DHT22;38531;53.296;6.614;2022-12-07T08:16:30;2.40;99.90
52643;DHT22;38531;53.296;6.614;2022-12-07T08:18:56;3.70;99.90
52643;DHT22;38531;53.296;6.614;2022-12-07T08:21:22;3.30;99.90
52643;DHT22;38531;53.296;6.614;2022-12-07T08:23:47;1.90;99.90
52643;DHT22;38531;53.296;6.614;2022-12-07T08:26:15;4.00;99.90
52643;DHT22;38531;53.296;6.614;2022-12-07T08:28:41;3.60;99.90
52643;DHT22;38531;53.296;6.614;2022-12-07T08:31:12;3.60;99.90
52643;DHT22;38531;53.296;6.614;2022-12-07T08:33:39;3.50;99.90
52643;DHT22;38531;53.296;6.614;2022-12-07T08:36:08;3.40;99.90
52643;DHT22;38531;53.296;6.614;2022-12-07T08:38:35;3.60;99.90
52643;DHT22;38531;53.296;6.614;2022-12-07T08:41:01;4.20;99.90
52643;DHT22;38531;53.296;6.614;2022-12-07T08:43:27;3.60;99.90
52643;DHT22;38531;53.296;6.614;2022-12-07T08:46:13;4.50;99.90
52643;DHT22;38531;53.296;6.614;2022-12-07T08:51:14;4.40;99.90
52643;DHT22;38531;53.296;6.614;2022-12-07T08:53:41;2.80;99.90
52643;DHT22;38531;53.296;6.614;2022-12-07T08:56:08;4.30;99.90
52643;DHT22;38531;53.296;6.614;2022-12-07T08:58:35;4.00;99.90
52643;DHT22;38531;53.296;6.614;2022-12-07T09:01:01;4.20;99.90
52643;DHT22;38531;53.296;6.614;2022-12-07T09:03:27;4.40;99.90
52643;DHT22;38531;53.296;6.614;2022-12-07T09:05:53;4.20;99.90
52643;DHT22;38531;53.296;6.614;2022-12-07T09:08:21;4.20;99.90
52643;DHT22;38531;53.296;6.614;2022-12-07T09:10:47;4.20;99.90
52643;DHT22;38531;53.296;6.614;2022-12-07T09:13:13;4.70;99.90
52643;DHT22;38531;53.296;6.614;2022-12-07T09:15:39;4.30;99.90
52643;DHT22;38531;53.296;6.614;2022-12-07T09:18:05;4.30;99.90
52643;DHT22;38531;53.296;6.614;2022-12-07T09:20:30;4.80;99.90
52643;DHT22;38531;53.296;6.614;2022-12-07T09:22:56;4.50;99.90
52643;DHT22;38531;53.296;6.614;2022-12-07T09:25:22;4.30;99.90
52643;DHT22;38531;53.296;6.614;2022-12-07T09:27:48;5.80;99.90
52643;DHT22;38531;53.296;6.614;2022-12-07T09:30:13;5.30;99.90
52643;DHT22;38531;53.296;6.614;2022-12-07T09:32:39;4.80;99.90
52643;DHT22;38531;53.296;6.614;2022-12-07T09:35:05;4.80;99.90
52643;DHT22;38531;53.296;6.614;2022-12-07T09:37:31;4.80;99.90
52643;DHT22;38531;53.296;6.614;2022-12-07T09:40:01;4.00;99.90
52643;DHT22;38531;53.296;6.614;2022-12-07T09:42:36;5.00;99.90
52643;DHT22;38531;53.296;6.614;2022-12-07T09:45:06;5.70;99.90
52643;DHT22;38531;53.296;6.614;2022-12-07T09:47:33;5.10;99.90
52643;DHT22;38531;53.296;6.614;2022-12-07T09:50:13;6.00;99.90
52643;DHT22;38531;53.296;6.614;2022-12-07T09:52:39;5.30;99.90
52643;DHT22;38531;53.296;6.614;2022-12-07T09:55:11;5.60;99.90
52643;DHT22;38531;53.296;6.614;2022-12-07T09:57:37;6.10;99.90
52643;DHT22;38531;53.296;6.614;2022-12-07T10:00:07;6.10;99.90
52643;DHT22;38531;53.296;6.614;2022-12-07T10:02:44;5.30;99.90
52643;DHT22;38531;53.296;6.614;2022-12-07T10:05:19;5.40;99.90
52643;DHT22;38531;53.296;6.614;2022-12-07T10:07:46;5.70;99.90
52643;DHT22;38531;53.296;6.614;2022-12-07T10:10:17;6.30;99.90
52643;DHT22;38531;53.296;6.614;2022-12-07T10:12:56;5.60;99.90
52643;DHT22;38531;53.296;6.614;2022-12-07T10:15:22;6.60;99.90
52643;DHT22;38531;53.296;6.614;2022-12-07T10:17:52;6.40;99.90
52643;DHT22;38531;53.296;6.614;2022-12-07T10:20:24;5.80;99.90
52643;DHT22;38531;53.296;6.614;2022-12-07T10:22:58;6.30;99.90
52643;DHT22;38531;53.296;6.614;2022-12-07T10:25:30;5.80;99.90
52643;DHT22;38531;53.296;6.614;2022-12-07T10:28:00;5.80;99.90
52643;DHT22;38531;53.296;6.614;2022-12-07T10:30:27;5.90;99.90
52643;DHT22;38531;53.296;6.614;2022-12-07T10:32:53;6.30;99.90
52643;DHT22;38531;53.296;6.614;2022-12-07T10:35:22;5.90;99.90
52643;DHT22;38531;53.296;6.614;2022-12-07T10:37:50;6.00;99.90
52643;DHT22;38531;53.296;6.614;2022-12-07T10:51:33;6.00;99.90
52643;DHT22;38531;53.296;6.614;2022-12-07T10:54:06;6.10;99.90
52643;DHT22;38531;53.296;6.614;2022-12-07T10:56:39;6.20;99.90
52643;DHT22;38531;53.296;6.614;2022-12-07T10:59:35;6.20;99.90
52643;DHT22;38531;53.296;6.614;2022-12-07T11:02:32;6.70;99.90
52643;DHT22;38531;53.296;6.614;2022-12-07T11:29:25;5.70;99.90
52643;DHT22;38531;53.296;6.614;2022-12-07T11:37:40;5.80;99.90
52643;DHT22;38531;53.296;6.614;2022-12-07T11:40:20;5.90;99.90
52643;DHT22;38531;53.296;6.614;2022-12-07T11:42:59;6.00;99.90
52643;DHT22;38531;53.296;6.614;2022-12-07T11:45:31;6.10;99.90
52643;DHT22;38531;53.296;6.614;2022-12-07T11:48:24;6.90;99.90
52643;DHT22;38531;53.296;6.614;2022-12-07T11:50:57;6.00;99.90
52643;DHT22;38531;53.296;6.614;2022-12-07T11:53:35;6.20;99.90
52643;DHT22;38531;53.296;6.614;2022-12-07T11:56:14;6.10;99.90
52643;DHT22;38531;53.296;6.614;2022-12-07T11:58:48;6.60;99.90
52643;DHT22;38531;53.296;6.614;2022-12-07T12:06:32;6.10;99.90
52643;DHT22;38531;53.296;6.614;2022-12-07T12:09:19;6.10;99.90
52643;DHT22;38531;53.296;6.614;2022-12-07T12:12:16;6.40;99.90
52643;DHT22;38531;53.296;6.614;2022-12-07T12:20:26;6.20;99.90
52643;DHT22;38531;53.296;6.614;2022-12-07T12:23:01;6.10;99.90
52643;DHT22;38531;53.296;6.614;2022-12-07T12:25:37;5.90;99.90
52643;DHT22;38531;53.296;6.614;2022-12-07T12:28:04;6.10;99.90
52643;DHT22;38531;53.296;6.614;2022-12-07T12:33:06;6.80;99.90
52643;DHT22;38531;53.296;6.614;2022-12-07T12:35:38;6.10;99.90
52643;DHT22;38531;53.296;6.614;2022-12-07T12:40:50;6.20;99.90
52643;DHT22;38531;53.296;6.614;2022-12-07T12:43:46;6.30;99.90
52643;DHT22;38531;53.296;6.614;2022-12-07T12:49:30;6.60;99.90
52643;DHT22;38531;53.296;6.614;2022-12-07T12:52:00;6.10;99.90
52643;DHT22;38531;53.296;6.614;2022-12-07T12:54:31;6.10;99.90
52643;DHT22;38531;53.296;6.614;2022-12-07T12:57:25;6.30;99.90
52643;DHT22;38531;53.296;6.614;2022-12-07T13:02:27;6.00;99.90
52643;DHT22;38531;53.296;6.614;2022-12-07T13:13:05;6.10;99.90
52643;DHT22;38531;53.296;6.614;2022-12-07T13:28:51;5.80;99.90
52643;DHT22;38531;53.296;6.614;2022-12-07T13:31:30;5.70;99.90
52643;DHT22;38531;53.296;6.614;2022-12-07T13:33:58;5.80;99.90
52643;DHT22;38531;53.296;6.614;2022-12-07T13:36:32;5.60;99.90
52643;DHT22;38531;53.296;6.614;2022-12-07T13:41:42;5.40;99.90
52643;DHT22;38531;53.296;6.614;2022-12-07T13:44:12;6.30;99.90
52643;DHT22;38531;53.296;6.614;2022-12-07T13:51:43;5.10;99.90
52643;DHT22;38531;53.296;6.614;2022-12-07T13:54:13;5.00;99.90
52643;DHT22;38531;53.296;6.614;2022-12-07T13:56:53;4.00;99.90
52643;DHT22;38531;53.296;6.614;2022-12-07T13:59:21;4.90;99.90
52643;DHT22;38531;53.296;6.614;2022-12-07T14:01:49;4.90;99.90
52643;DHT22;38531;53.296;6.614;2022-12-07T14:04:35;5.20;99.90
52643;DHT22;38531;53.296;6.614;2022-12-07T14:07:26;4.80;99.90
52643;DHT22;38531;53.296;6.614;2022-12-07T14:09:58;4.70;99.90
52643;DHT22;38531;53.296;6.614;2022-12-07T14:12:26;4.70;99.90
52643;DHT22;38531;53.296;6.614;2022-12-07T14:14:52;5.60;99.90
52643;DHT22;38531;53.296;6.614;2022-12-07T14:17:22;4.50;99.90
52643;DHT22;38531;53.296;6.614;2022-12-07T14:19:55;4.50;99.90
52643;DHT22;38531;53.296;6.614;2022-12-07T14:22:37;3.20;99.90
52643;DHT22;38531;53.296;6.614;2022-12-07T14:25:17;4.40;99.90
52643;DHT22;38531;53.296;6.614;2022-12-07T14:28:00;3.70;99.90
52643;DHT22;38531;53.296;6.614;2022-12-07T14:30:31;4.30;99.90
52643;DHT22;38531;53.296;6.614;2022-12-07T14:33:00;4.20;99.90
52643;DHT22;38531;53.296;6.614;2022-12-07T14:35:27;4.40;99.90
52643;DHT22;38531;53.296;6.614;2022-12-07T14:37:52;5.00;99.90
52643;DHT22;38531;53.296;6.614;2022-12-07T14:40:21;4.20;99.90
52643;DHT22;38531;53.296;6.614;2022-12-07T14:42:50;4.40;99.90
52643;DHT22;38531;53.296;6.614;2022-12-07T14:45:19;4.40;99.90
52643;DHT22;38531;53.296;6.614;2022-12-07T14:47:48;5.20;99.90
52643;DHT22;38531;53.296;6.614;2022-12-07T14:50:16;4.50;99.90
52643;DHT22;38531;53.296;6.614;2022-12-07T14:52:43;4.10;99.90
52643;DHT22;38531;53.296;6.614;2022-12-07T14:55:28;4.60;99.90
52643;DHT22;38531;53.296;6.614;2022-12-07T14:57:55;4.10;99.90
52643;DHT22;38531;53.296;6.614;2022-12-07T15:00:23;4.40;99.90
52643;DHT22;38531;53.296;6.614;2022-12-07T15:02:49;4.60;99.90
52643;DHT22;38531;53.296;6.614;2022-12-07T15:05:16;4.80;99.90
52643;DHT22;38531;53.296;6.614;2022-12-07T15:07:42;4.90;99.90
52643;DHT22;38531;53.296;6.614;2022-12-07T15:10:18;4.00;99.90
52643;DHT22;38531;53.296;6.614;2022-12-07T15:12:44;3.90;99.90
52643;DHT22;38531;53.296;6.614;2022-12-07T15:15:10;4.60;99.90
52643;DHT22;38531;53.296;6.614;2022-12-07T15:17:36;3.90;99.90
52643;DHT22;38531;53.296;6.614;2022-12-07T15:20:02;2.60;99.90
52643;DHT22;38531;53.296;6.614;2022-12-07T15:22:28;3.90;99.90
52643;DHT22;38531;53.296;6.614;2022-12-07T15:24:57;3.40;99.90
52643;DHT22;38531;53.296;6.614;2022-12-07T15:27:22;4.40;99.90
52643;DHT22;38531;53.296;6.614;2022-12-07T15:29:48;3.20;99.90
52643;DHT22;38531;53.296;6.614;2022-12-07T15:32:14;4.60;99.90
52643;DHT22;38531;53.296;6.614;2022-12-07T15:34:39;3.60;99.90
52643;DHT22;38531;53.296;6.614;2022-12-07T15:37:06;4.10;99.90
52643;DHT22;38531;53.296;6.614;2022-12-07T15:39:32;3.70;99.90
52643;DHT22;38531;53.296;6.614;2022-12-07T15:41:57;4.50;99.90
52643;DHT22;38531;53.296;6.614;2022-12-07T15:44:23;4.20;99.90
52643;DHT22;38531;53.296;6.614;2022-12-07T15:47:07;2.90;99.90
52643;DHT22;38531;53.296;6.614;2022-12-07T15:49:33;4.40;99.90
52643;DHT22;38531;53.296;6.614;2022-12-07T15:51:58;2.80;99.90
52643;DHT22;38531;53.296;6.614;2022-12-07T15:54:26;3.40;99.90
52643;DHT22;38531;53.296;6.614;2022-12-07T15:56:53;4.00;99.90
52643;DHT22;38531;53.296;6.614;2022-12-07T15:59:19;3.30;99.90
52643;DHT22;38531;53.296;6.614;2022-12-07T16:01:44;3.30;99.90
52643;DHT22;38531;53.296;6.614;2022-12-07T16:04:10;3.30;99.90
52643;DHT22;38531;53.296;6.614;2022-12-07T16:06:36;3.70;99.90
52643;DHT22;38531;53.296;6.614;2022-12-07T16:09:03;3.60;99.90
52643;DHT22;38531;53.296;6.614;2022-12-07T16:11:28;3.20;99.90
52643;DHT22;38531;53.296;6.614;2022-12-07T16:13:54;3.10;99.90
52643;DHT22;38531;53.296;6.614;2022-12-07T16:16:20;3.80;99.90
52643;DHT22;38531;53.296;6.614;2022-12-07T16:18:50;3.90;99.90
52643;DHT22;38531;53.296;6.614;2022-12-07T16:21:17;3.10;99.90
52643;DHT22;38531;53.296;6.614;2022-12-07T16:23:44;3.10;99.90
52643;DHT22;38531;53.296;6.614;2022-12-07T16:26:18;3.10;99.90
52643;DHT22;38531;53.296;6.614;2022-12-07T16:28:49;3.10;99.90
52643;DHT22;38531;53.296;6.614;2022-12-07T16:31:18;3.10;99.90
52643;DHT22;38531;53.296;6.614;2022-12-07T16:33:44;4.40;99.90
52643;DHT22;38531;53.296;6.614;2022-12-07T16:36:14;4.10;99.90
52643;DHT22;38531;53.296;6.614;2022-12-07T16:38:43;3.50;99.90
52643;DHT22;38531;53.296;6.614;2022-12-07T16:41:10;2.30;99.90
52643;DHT22;38531;53.296;6.614;2022-12-07T16:43:36;2.30;99.90
52643;DHT22;38531;53.296;6.614;2022-12-07T16:46:02;3.20;99.90
52643;DHT22;38531;53.296;6.614;2022-12-07T16:48:28;3.10;99.90
52643;DHT22;38531;53.296;6.614;2022-12-07T16:50:54;3.00;99.90
52643;DHT22;38531;53.296;6.614;2022-12-07T16:53:22;3.90;99.90
52643;DHT22;38531;53.296;6.614;2022-12-07T16:55:49;2.80;99.90
52643;DHT22;38531;53.296;6.614;2022-12-07T16:58:16;4.20;99.90
52643;DHT22;38531;53.296;6.614;2022-12-07T17:00:47;2.90;99.90
52643;DHT22;38531;53.296;6.614;2022-12-07T17:03:14;3.50;99.90
52643;DHT22;38531;53.296;6.614;2022-12-07T17:05:45;3.00;99.90
52643;DHT22;38531;53.296;6.614;2022-12-07T17:08:22;3.90;99.90
52643;DHT22;38531;53.296;6.614;2022-12-07T17:10:47;3.30;99.90
52643;DHT22;38531;53.296;6.614;2022-12-07T17:13:13;3.60;99.90
52643;DHT22;38531;53.296;6.614;2022-12-07T17:16:04;3.90;99.90
52643;DHT22;38531;53.296;6.614;2022-12-07T17:18:33;2.90;99.90
52643;DHT22;38531;53.296;6.614;2022-12-07T17:21:07;3.00;99.90
52643;DHT22;38531;53.296;6.614;2022-12-07T17:23:33;3.40;99.90
52643;DHT22;38531;53.296;6.614;2022-12-07T17:26:07;2.80;99.90
52643;DHT22;38531;53.296;6.614;2022-12-07T17:28:34;3.70;99.90
52643;DHT22;38531;53.296;6.614;2022-12-07T17:31:00;2.50;99.90
52643;DHT22;38531;53.296;6.614;2022-12-07T17:33:25;2.80;99.90
52643;DHT22;38531;53.296;6.614;2022-12-07T17:35:51;2.90;99.90
52643;DHT22;38531;53.296;6.614;2022-12-07T17:38:17;3.00;99.90
52643;DHT22;38531;53.296;6.614;2022-12-07T17:40:43;2.00;99.90
52643;DHT22;38531;53.296;6.614;2022-12-07T17:43:08;3.20;99.90
52643;DHT22;38531;53.296;6.614;2022-12-07T17:45:36;2.80;99.90
52643;DHT22;38531;53.296;6.614;2022-12-07T17:48:03;3.70;99.90
52643;DHT22;38531;53.296;6.614;2022-12-07T17:50:29;2.80;99.90
52643;DHT22;38531;53.296;6.614;2022-12-07T17:53:13;2.80;99.90
52643;DHT22;38531;53.296;6.614;2022-12-07T17:55:39;2.20;99.90
52643;DHT22;38531;53.296;6.614;2022-12-07T17:58:04;2.80;99.90
52643;DHT22;38531;53.296;6.614;2022-12-07T18:00:30;3.50;99.90